Ship Status Report: callsign ZLJ8786

sailwx.info

Track history (hours):
 
Tides and Currents Weather Stations Pressure Air Temp Water Temp Dewpoint Dewpoint Depression Visibility Wind Speed Wind Dir Waves Ship Positions

Callsign ZLJ8786 (name unknown)

Last reported at 2017-Oct-29 22:26 UTC. Time now 2017-Nov-18 01:14 UTC.
Position N 25°47' W 080°11'.
Warning: this ship's position is 19 days out of date.

Date/timePositionNaut miles runAvg speedWind from/ knotsBaromVisibWave heightAir tempDewpointWater temp
2017-Oct-29 22:26N 25°47' W 080°11'1 2.7
2017-Oct-29 22:00N 25°46' W 080°11'0 0.7
2017-Oct-29 21:30N 25°46' W 080°12'0 0.0
2017-Oct-29 21:00N 25°46' W 080°12'0 0.0
2017-Oct-29 20:30N 25°46' W 080°12'2 3.2
2017-Oct-29 20:00N 25°46' W 080°10'1 1.9
2017-Oct-29 19:30N 25°47' W 080°09'0 0.0
2017-Oct-29 19:01N 25°47' W 080°09'0 0.0
2017-Oct-29 18:31N 25°47' W 080°09'0 0.9
2017-Oct-29 18:00N 25°47' W 080°09'2 4.7
2017-Oct-29 17:30N 25°45' W 080°11'0 0.9
2017-Oct-29 17:00N 25°46' W 080°11'1 2.7
2017-Oct-29 16:30N 25°47' W 080°11'0 0.0
2017-Oct-29 16:00N 25°47' W 080°11'0 0.0
2017-Oct-29 15:30N 25°47' W 080°11'0 0.0
2017-Oct-29 15:00N 25°47' W 080°11'0 0.0
2017-Oct-29 14:30N 25°47' W 080°11'0 0.0
2017-Oct-29 14:00N 25°47' W 080°11'  
2017-Oct-26 23:46N 25°47' W 080°11'0 0.3
2017-Oct-26 23:31N 25°47' W 080°11'1 1.7
2017-Oct-26 23:01N 25°46' W 080°11'1 2.7
2017-Oct-26 22:31N 25°46' W 080°09'2 3.3
2017-Oct-26 22:00N 25°47' W 080°11'0 0.0
2017-Oct-26 21:30N 25°47' W 080°11'0 0.0
2017-Oct-26 21:00N 25°47' W 080°11'  
2017-Oct-23 02:58N 25°47' W 080°11'0 0.3
2017-Oct-23 02:30N 25°47' W 080°11'1 2.4
2017-Oct-23 02:00N 25°46' W 080°10'1 2.2
2017-Oct-23 01:30N 25°46' W 080°09'3 5.8
2017-Oct-23 01:00N 25°46' W 080°12'1 1.1
2017-Oct-23 00:30N 25°47' W 080°12'0 0.0
2017-Oct-23 00:00N 25°47' W 080°12'0 0.0
2017-Oct-22 23:30N 25°47' W 080°12'0 0.0
2017-Oct-22 23:00N 25°47' W 080°12'0 0.0
2017-Oct-22 22:30N 25°47' W 080°12'0 0.0
2017-Oct-22 22:00N 25°47' W 080°12'0 0.0
2017-Oct-22 21:30N 25°47' W 080°12'0 0.0
2017-Oct-22 21:01N 25°47' W 080°12'2 3.2
2017-Oct-22 20:30N 25°46' W 080°11'1 2.5
2017-Oct-22 20:00N 25°47' W 080°09'0 0.0
2017-Oct-22 19:30N 25°47' W 080°09'0 0.0
2017-Oct-22 19:00N 25°47' W 080°09'0 0.0
2017-Oct-22 18:30N 25°47' W 080°09'0 0.0
2017-Oct-22 18:01N 25°47' W 080°09'0 0.6
2017-Oct-22 17:30N 25°47' W 080°09'2 3.8
2017-Oct-22 17:00N 25°47' W 080°11'4 7.2
2017-Oct-22 16:30N 25°43' W 080°11'4 7.2
2017-Oct-22 16:01N 25°39' W 080°11'1 2.7
2017-Oct-22 15:30N 25°41' W 080°11'3 5.4
2017-Oct-22 15:00N 25°43' W 080°11'3 5.8
2017-Oct-22 14:30N 25°46' W 080°10'1 1.9
2017-Oct-22 14:00N 25°47' W 080°11'0 0.5
2017-Oct-22 13:30N 25°47' W 080°11'0 0.0
2017-Oct-22 13:00N 25°47' W 080°11'0 0.0
2017-Oct-22 12:30N 25°47' W 080°11'0 0.0
2017-Oct-22 12:00N 25°47' W 080°11'0 0.0
2017-Oct-22 05:11N 25°47' W 080°11'0 0.0
2017-Oct-22 05:00N 25°47' W 080°11'1 2.4
2017-Oct-22 04:30N 25°46' W 080°12'0 0.7
2017-Oct-22 04:00N 25°46' W 080°12'1 2.3
2017-Oct-22 03:30N 25°47' W 080°11'0 0.7
2017-Oct-22 03:00N 25°47' W 080°11'0 0.0
2017-Oct-22 02:30N 25°47' W 080°11'0 0.0
2017-Oct-22 02:00N 25°47' W 080°11'0 0.0
2017-Oct-22 01:30N 25°47' W 080°11'0 0.0
2017-Oct-22 01:00N 25°47' W 080°11'0 0.0
2017-Oct-22 00:30N 25°47' W 080°11'0 0.0
2017-Oct-22 00:00N 25°47' W 080°11'0 0.0
2017-Oct-21 23:30N 25°47' W 080°11'0 0.0
2017-Oct-21 23:00N 25°47' W 080°11'0 0.0
2017-Oct-21 22:30N 25°47' W 080°11'0 0.5
2017-Oct-21 22:01N 25°47' W 080°11'3 5.6
2017-Oct-21 21:30N 25°50' W 080°10'2 3.5
2017-Oct-21 21:00N 25°48' W 080°11'2 3.6
2017-Oct-21 20:30N 25°46' W 080°10'1 2.1
2017-Oct-21 20:00N 25°47' W 080°09'0 0.0
2017-Oct-21 19:30N 25°47' W 080°09'0 0.0
2017-Oct-21 19:00N 25°47' W 080°09'0 0.0
2017-Oct-21 18:30N 25°47' W 080°09'0 0.0
2017-Oct-21 18:00N 25°47' W 080°09'0 0.0
2017-Oct-21 17:31N 25°47' W 080°09'0 0.0
2017-Oct-21 17:01N 25°47' W 080°09'0 0.9
2017-Oct-21 16:30N 25°47' W 080°09'2 4.3
2017-Oct-21 15:59N 25°46' W 080°11'4 6.6
2017-Oct-21 15:25N 25°42' W 080°11'3 7.6
2017-Oct-21 14:59N 25°45' W 080°11'2 4.0
2017-Oct-21 14:30N 25°47' W 080°11'0 0.0
2017-Oct-21 13:30N 25°47' W 080°11'0 0.0
2017-Oct-21 13:00N 25°47' W 080°11'0 0.0
2017-Oct-21 12:30N 25°47' W 080°11'0 0.0
2017-Oct-21 12:00N 25°47' W 080°11'0 0.0
2017-Oct-21 11:28N 25°47' W 080°11'0 0.0
2017-Oct-21 11:00N 25°47' W 080°11'0 0.0
2017-Oct-21 10:30N 25°47' W 080°11'0 0.0
2017-Oct-21 10:00N 25°47' W 080°11'0 0.0
2017-Oct-21 09:30N 25°47' W 080°11'0 0.0
2017-Oct-21 09:00N 25°47' W 080°11'0 0.0
2017-Oct-21 08:29N 25°47' W 080°11'0 0.0
2017-Oct-21 08:00N 25°47' W 080°11'0 0.0
2017-Oct-21 07:28N 25°47' W 080°11'0 0.0
2017-Oct-21 07:00N 25°47' W 080°11'0 0.0
2017-Oct-21 06:30N 25°47' W 080°11'0 0.0
2017-Oct-21 05:58N 25°47' W 080°11'0 0.0
2017-Oct-21 05:30N 25°47' W 080°11'0 0.0
2017-Oct-21 05:00N 25°47' W 080°11'0 0.0
2017-Oct-21 04:30N 25°47' W 080°11'0 0.0
2017-Oct-21 04:00N 25°47' W 080°11'0 0.0
2017-Oct-21 03:30N 25°47' W 080°11'0 0.0
2017-Oct-21 03:00N 25°47' W 080°11'0 0.0
2017-Oct-21 02:30N 25°47' W 080°11'0 0.0
2017-Oct-21 02:00N 25°47' W 080°11'0 0.1
2017-Oct-21 01:30N 25°47' W 080°11'0 0.0
2017-Oct-21 01:00N 25°47' W 080°11'0 0.0
2017-Oct-21 00:30N 25°47' W 080°11'0 0.3
2017-Oct-21 00:00N 25°47' W 080°11'3 5.0
2017-Oct-20 23:29N 25°44' W 080°11'3 3.5
2017-Oct-20 22:44N 25°42' W 080°11'2 6.9
2017-Oct-20 22:30N 25°43' W 080°11'4 7.3
2017-Oct-20 22:01N 25°47' W 080°11'1 2.9
2017-Oct-20 21:30N 25°47' W 080°09'0 0.3
2017-Oct-20 21:00N 25°47' W 080°09'2 3.0
2017-Oct-20 20:28N 25°45' W 080°09'0 0.0
2017-Oct-20 20:00N 25°45' W 080°09'0 0.0
2017-Oct-20 19:30N 25°45' W 080°09'0 0.0
2017-Oct-20 19:00N 25°45' W 080°09'2 3.4
2017-Oct-20 18:29N 25°46' W 080°10'1 2.1
2017-Oct-20 18:00N 25°47' W 080°11'0 0.9
2017-Oct-20 17:30N 25°47' W 080°11'0 0.0
2017-Oct-20 17:00N 25°47' W 080°11'0 0.0
2017-Oct-20 16:30N 25°47' W 080°11'0 0.0
2017-Oct-20 16:00N 25°47' W 080°11'0 0.0
2017-Oct-20 15:30N 25°47' W 080°11'0 0.0
2017-Oct-20 15:00N 25°47' W 080°11'0 0.0
2017-Oct-20 14:30N 25°47' W 080°11'0 0.0
2017-Oct-20 13:30N 25°47' W 080°11'0 0.0
2017-Oct-20 13:00N 25°47' W 080°11'0 0.0
2017-Oct-20 12:29N 25°47' W 080°11'0 0.0
2017-Oct-20 12:00N 25°47' W 080°11'0 0.0
2017-Oct-20 11:30N 25°47' W 080°11'0 0.0
2017-Oct-20 10:58N 25°47' W 080°11'0 0.0
2017-Oct-20 10:29N 25°47' W 080°11'0 0.0
2017-Oct-20 10:00N 25°47' W 080°11'0 0.0
2017-Oct-20 09:30N 25°47' W 080°11'0 0.0
2017-Oct-20 08:25N 25°47' W 080°11'0 0.0
2017-Oct-20 07:39N 25°47' W 080°11'0 0.0
2017-Oct-20 07:27N 25°47' W 080°11'0 0.0
2017-Oct-20 05:25N 25°47' W 080°11'0 0.0
2017-Oct-20 04:53N 25°47' W 080°11'0 0.0
2017-Oct-20 04:29N 25°47' W 080°11'0 0.0
2017-Oct-20 04:00N 25°47' W 080°11'0 0.0
2017-Oct-20 03:30N 25°47' W 080°11'0 0.0
2017-Oct-20 03:00N 25°47' W 080°11'0 0.0
2017-Oct-20 02:30N 25°47' W 080°11'0 0.0
2017-Oct-20 02:00N 25°47' W 080°11'0 0.0
2017-Oct-20 01:30N 25°47' W 080°11'0 0.0
2017-Oct-20 01:00N 25°47' W 080°11'0 0.0
2017-Oct-20 00:30N 25°47' W 080°11'0 0.0
2017-Oct-20 00:00N 25°47' W 080°11'0 0.0
2017-Oct-19 23:30N 25°47' W 080°11'0 0.0
2017-Oct-19 22:57N 25°47' W 080°11'0 0.1
2017-Oct-19 22:30N 25°47' W 080°11'  
Track history (hours):
 
Tides and Currents Weather Stations Pressure Air Temp Water Temp Dewpoint Dewpoint Depression Visibility Wind Speed Wind Dir Waves Ship Positions

Callsign ZLJ8786 (name unknown)

Last reported at 2017-Oct-29 22:26 UTC. Time now 2017-Nov-18 01:14 UTC.
Position N 25°47' W 080°11'.
Warning: this ship's position is 19 days out of date.

Date/timePositionNaut miles runAvg speedWind from/ knotsBaromVisibWave heightAir tempDewpointWater temp
2017-Oct-29 22:26N 25°47' W 080°11'1 2.7
2017-Oct-29 22:00N 25°46' W 080°11'0 0.7
2017-Oct-29 21:30N 25°46' W 080°12'0 0.0
2017-Oct-29 21:00N 25°46' W 080°12'0 0.0
2017-Oct-29 20:30N 25°46' W 080°12'2 3.2
2017-Oct-29 20:00N 25°46' W 080°10'1 1.9
2017-Oct-29 19:30N 25°47' W 080°09'0 0.0
2017-Oct-29 19:01N 25°47' W 080°09'0 0.0
2017-Oct-29 18:31N 25°47' W 080°09'0 0.9
2017-Oct-29 18:00N 25°47' W 080°09'2 4.7
2017-Oct-29 17:30N 25°45' W 080°11'0 0.9
2017-Oct-29 17:00N 25°46' W 080°11'1 2.7
2017-Oct-29 16:30N 25°47' W 080°11'0 0.0
2017-Oct-29 16:00N 25°47' W 080°11'0 0.0
2017-Oct-29 15:30N 25°47' W 080°11'0 0.0
2017-Oct-29 15:00N 25°47' W 080°11'0 0.0
2017-Oct-29 14:30N 25°47' W 080°11'0 0.0
2017-Oct-29 14:00N 25°47' W 080°11'  
2017-Oct-26 23:46N 25°47' W 080°11'0 0.3
2017-Oct-26 23:31N 25°47' W 080°11'1 1.7
2017-Oct-26 23:01N 25°46' W 080°11'1 2.7
2017-Oct-26 22:31N 25°46' W 080°09'2 3.3
2017-Oct-26 22:00N 25°47' W 080°11'0 0.0
2017-Oct-26 21:30N 25°47' W 080°11'0 0.0
2017-Oct-26 21:00N 25°47' W 080°11'  
2017-Oct-23 02:58N 25°47' W 080°11'0 0.3
2017-Oct-23 02:30N 25°47' W 080°11'1 2.4
2017-Oct-23 02:00N 25°46' W 080°10'1 2.2
2017-Oct-23 01:30N 25°46' W 080°09'3 5.8
2017-Oct-23 01:00N 25°46' W 080°12'1 1.1
2017-Oct-23 00:30N 25°47' W 080°12'0 0.0
2017-Oct-23 00:00N 25°47' W 080°12'0 0.0
2017-Oct-22 23:30N 25°47' W 080°12'0 0.0
2017-Oct-22 23:00N 25°47' W 080°12'0 0.0
2017-Oct-22 22:30N 25°47' W 080°12'0 0.0
2017-Oct-22 22:00N 25°47' W 080°12'0 0.0
2017-Oct-22 21:30N 25°47' W 080°12'0 0.0
2017-Oct-22 21:01N 25°47' W 080°12'2 3.2
2017-Oct-22 20:30N 25°46' W 080°11'1 2.5
2017-Oct-22 20:00N 25°47' W 080°09'0 0.0
2017-Oct-22 19:30N 25°47' W 080°09'0 0.0
2017-Oct-22 19:00N 25°47' W 080°09'0 0.0
2017-Oct-22 18:30N 25°47' W 080°09'0 0.0
2017-Oct-22 18:01N 25°47' W 080°09'0 0.6
2017-Oct-22 17:30N 25°47' W 080°09'2 3.8
2017-Oct-22 17:00N 25°47' W 080°11'4 7.2
2017-Oct-22 16:30N 25°43' W 080°11'4 7.2
2017-Oct-22 16:01N 25°39' W 080°11'1 2.7
2017-Oct-22 15:30N 25°41' W 080°11'3 5.4
2017-Oct-22 15:00N 25°43' W 080°11'3 5.8
2017-Oct-22 14:30N 25°46' W 080°10'1 1.9
2017-Oct-22 14:00N 25°47' W 080°11'0 0.5
2017-Oct-22 13:30N 25°47' W 080°11'0 0.0
2017-Oct-22 13:00N 25°47' W 080°11'0 0.0
2017-Oct-22 12:30N 25°47' W 080°11'0 0.0
2017-Oct-22 12:00N 25°47' W 080°11'0 0.0
2017-Oct-22 05:11N 25°47' W 080°11'0 0.0
2017-Oct-22 05:00N 25°47' W 080°11'1 2.4
2017-Oct-22 04:30N 25°46' W 080°12'0 0.7
2017-Oct-22 04:00N 25°46' W 080°12'1 2.3
2017-Oct-22 03:30N 25°47' W 080°11'0 0.7
2017-Oct-22 03:00N 25°47' W 080°11'0 0.0
2017-Oct-22 02:30N 25°47' W 080°11'0 0.0
2017-Oct-22 02:00N 25°47' W 080°11'0 0.0
2017-Oct-22 01:30N 25°47' W 080°11'0 0.0
2017-Oct-22 01:00N 25°47' W 080°11'0 0.0
2017-Oct-22 00:30N 25°47' W 080°11'0 0.0
2017-Oct-22 00:00N 25°47' W 080°11'0 0.0
2017-Oct-21 23:30N 25°47' W 080°11'0 0.0
2017-Oct-21 23:00N 25°47' W 080°11'0 0.0
2017-Oct-21 22:30N 25°47' W 080°11'0 0.5
2017-Oct-21 22:01N 25°47' W 080°11'3 5.6
2017-Oct-21 21:30N 25°50' W 080°10'2 3.5
2017-Oct-21 21:00N 25°48' W 080°11'2 3.6
2017-Oct-21 20:30N 25°46' W 080°10'1 2.1
2017-Oct-21 20:00N 25°47' W 080°09'0 0.0
2017-Oct-21 19:30N 25°47' W 080°09'0 0.0
2017-Oct-21 19:00N 25°47' W 080°09'0 0.0
2017-Oct-21 18:30N 25°47' W 080°09'0 0.0
2017-Oct-21 18:00N 25°47' W 080°09'0 0.0
2017-Oct-21 17:31N 25°47' W 080°09'0 0.0
2017-Oct-21 17:01N 25°47' W 080°09'0 0.9
2017-Oct-21 16:30N 25°47' W 080°09'2 4.3
2017-Oct-21 15:59N 25°46' W 080°11'4 6.6
2017-Oct-21 15:25N 25°42' W 080°11'3 7.6
2017-Oct-21 14:59N 25°45' W 080°11'2 4.0
2017-Oct-21 14:30N 25°47' W 080°11'0 0.0
2017-Oct-21 13:30N 25°47' W 080°11'0 0.0
2017-Oct-21 13:00N 25°47' W 080°11'0 0.0
2017-Oct-21 12:30N 25°47' W 080°11'0 0.0
2017-Oct-21 12:00N 25°47' W 080°11'0 0.0
2017-Oct-21 11:28N 25°47' W 080°11'0 0.0
2017-Oct-21 11:00N 25°47' W 080°11'0 0.0
2017-Oct-21 10:30N 25°47' W 080°11'0 0.0
2017-Oct-21 10:00N 25°47' W 080°11'0 0.0
2017-Oct-21 09:30N 25°47' W 080°11'0 0.0
2017-Oct-21 09:00N 25°47' W 080°11'0 0.0
2017-Oct-21 08:29N 25°47' W 080°11'0 0.0
2017-Oct-21 08:00N 25°47' W 080°11'0 0.0
2017-Oct-21 07:28N 25°47' W 080°11'0 0.0
2017-Oct-21 07:00N 25°47' W 080°11'0 0.0
2017-Oct-21 06:30N 25°47' W 080°11'0 0.0
2017-Oct-21 05:58N 25°47' W 080°11'0 0.0
2017-Oct-21 05:30N 25°47' W 080°11'0 0.0
2017-Oct-21 05:00N 25°47' W 080°11'0 0.0
2017-Oct-21 04:30N 25°47' W 080°11'0 0.0
2017-Oct-21 04:00N 25°47' W 080°11'0 0.0
2017-Oct-21 03:30N 25°47' W 080°11'0 0.0
2017-Oct-21 03:00N 25°47' W 080°11'0 0.0
2017-Oct-21 02:30N 25°47' W 080°11'0 0.0
2017-Oct-21 02:00N 25°47' W 080°11'0 0.1
2017-Oct-21 01:30N 25°47' W 080°11'0 0.0
2017-Oct-21 01:00N 25°47' W 080°11'0 0.0
2017-Oct-21 00:30N 25°47' W 080°11'0 0.3
2017-Oct-21 00:00N 25°47' W 080°11'3 5.0
2017-Oct-20 23:29N 25°44' W 080°11'3 3.5
2017-Oct-20 22:44N 25°42' W 080°11'2 6.9
2017-Oct-20 22:30N 25°43' W 080°11'4 7.3
2017-Oct-20 22:01N 25°47' W 080°11'1 2.9
2017-Oct-20 21:30N 25°47' W 080°09'0 0.3
2017-Oct-20 21:00N 25°47' W 080°09'2 3.0
2017-Oct-20 20:28N 25°45' W 080°09'0 0.0
2017-Oct-20 20:00N 25°45' W 080°09'0 0.0
2017-Oct-20 19:30N 25°45' W 080°09'0 0.0
2017-Oct-20 19:00N 25°45' W 080°09'2 3.4
2017-Oct-20 18:29N 25°46' W 080°10'1 2.1
2017-Oct-20 18:00N 25°47' W 080°11'0 0.9
2017-Oct-20 17:30N 25°47' W 080°11'0 0.0
2017-Oct-20 17:00N 25°47' W 080°11'0 0.0
2017-Oct-20 16:30N 25°47' W 080°11'0 0.0
2017-Oct-20 16:00N 25°47' W 080°11'0 0.0
2017-Oct-20 15:30N 25°47' W 080°11'0 0.0
2017-Oct-20 15:00N 25°47' W 080°11'0 0.0
2017-Oct-20 14:30N 25°47' W 080°11'0 0.0
2017-Oct-20 13:30N 25°47' W 080°11'0 0.0
2017-Oct-20 13:00N 25°47' W 080°11'0 0.0
2017-Oct-20 12:29N 25°47' W 080°11'0 0.0
2017-Oct-20 12:00N 25°47' W 080°11'0 0.0
2017-Oct-20 11:30N 25°47' W 080°11'0 0.0
2017-Oct-20 10:58N 25°47' W 080°11'0 0.0
2017-Oct-20 10:29N 25°47' W 080°11'0 0.0
2017-Oct-20 10:00N 25°47' W 080°11'0 0.0
2017-Oct-20 09:30N 25°47' W 080°11'0 0.0
2017-Oct-20 08:25N 25°47' W 080°11'0 0.0
2017-Oct-20 07:39N 25°47' W 080°11'0 0.0
2017-Oct-20 07:27N 25°47' W 080°11'0 0.0
2017-Oct-20 05:25N 25°47' W 080°11'0 0.0
2017-Oct-20 04:53N 25°47' W 080°11'0 0.0
2017-Oct-20 04:29N 25°47' W 080°11'0 0.0
2017-Oct-20 04:00N 25°47' W 080°11'0 0.0
2017-Oct-20 03:30N 25°47' W 080°11'0 0.0
2017-Oct-20 03:00N 25°47' W 080°11'0 0.0
2017-Oct-20 02:30N 25°47' W 080°11'0 0.0
2017-Oct-20 02:00N 25°47' W 080°11'0 0.0
2017-Oct-20 01:30N 25°47' W 080°11'0 0.0
2017-Oct-20 01:00N 25°47' W 080°11'0 0.0
2017-Oct-20 00:30N 25°47' W 080°11'0 0.0
2017-Oct-20 00:00N 25°47' W 080°11'0 0.0
2017-Oct-19 23:30N 25°47' W 080°11'0 0.0
2017-Oct-19 22:57N 25°47' W 080°11'0 0.1
2017-Oct-19 22:30N 25°47' W 080°11'  

Dump ship's entire track history